Terminal Aerodrome Forecast
Issued by NWS

Home | Current Version | Previous Version | Text Only | Print | Product List | Glossary Off
Versions: 1 2 3 4 5 6 7 8 9 10 11 12 13 14 15 16 17 18 19 20 21 22

000
FTUS44 KTSA 200700 AAA
TAFXNA
TAF AMD
KXNA 200735Z 2008/2106 00000KT 1 1/2SM BR SCT004
      TEMPO 2009/2013 3/4SM BR OVC004
     FM201500 19008KT P6SM SCT050
     FM210100 00000KT P6SM SCT250=

USA.gov is the U.S. government's official web portal to all federal, state and local government web resources and services.